createdAt,value
2023-03-17T00:02:01.131Z,25.65
2023-03-17T00:04:42.491Z,28.23
2023-03-17T00:07:20.292Z,27.48
2023-03-17T00:09:55.449Z,26.17
2023-03-17T00:12:43.913Z,28.33
2023-03-17T00:15:28.447Z,23.95
2023-03-17T00:18:21.328Z,25.58
2023-03-17T00:21:05.817Z,24.23
2023-03-17T00:23:54.995Z,18.40
2023-03-17T00:26:28.763Z,27.83
2023-03-17T00:29:07.760Z,20.90
2023-03-17T00:31:54.413Z,18.85
2023-03-17T00:34:32.598Z,20.08
2023-03-17T00:37:07.813Z,23.58
2023-03-17T00:39:49.545Z,28.67
2023-03-17T00:42:34.001Z,22.73
2023-03-17T00:45:20.174Z,31.08
2023-03-17T00:48:04.446Z,22.60
2023-03-17T00:50:47.548Z,26.35
2023-03-17T00:53:32.223Z,37.83
2023-03-17T00:56:15.052Z,33.50
2023-03-17T00:58:53.096Z,34.92
2023-03-17T01:01:48.092Z,41.35
2023-03-17T01:04:33.152Z,42.95
2023-03-17T01:07:19.824Z,36.17
2023-03-17T01:10:04.473Z,28.75
2023-03-17T01:12:48.276Z,36.13
2023-03-17T01:15:36.443Z,31.27
2023-03-17T01:18:20.054Z,33.25
2023-03-17T01:20:56.966Z,29.90
2023-03-17T01:23:43.923Z,30.70
2023-03-17T01:26:33.147Z,32.45
2023-03-17T01:29:17.037Z,48.05
2023-03-17T01:32:00.392Z,33.90
2023-03-17T01:34:42.116Z,46.80
2023-03-17T01:37:23.765Z,34.83
2023-03-17T01:40:10.609Z,41.45
2023-03-17T01:42:57.008Z,40.10
2023-03-17T01:48:33.016Z,30.55
2023-03-17T01:51:32.604Z,33.83
2023-03-17T01:54:19.889Z,39.63
2023-03-17T01:57:07.668Z,36.33
2023-03-17T01:59:56.073Z,33.00
2023-03-17T02:02:44.099Z,33.38
2023-03-17T02:05:25.724Z,41.53
2023-03-17T02:08:17.785Z,48.22
2023-03-17T02:11:03.503Z,50.05
2023-03-17T02:13:44.792Z,40.20
2023-03-17T02:16:29.431Z,42.88
2023-03-17T02:19:10.530Z,40.65
2023-03-17T02:22:06.024Z,40.53
2023-03-17T02:25:03.848Z,46.13
2023-03-17T02:27:48.538Z,54.42
2023-03-17T02:30:33.820Z,59.03
2023-03-17T02:33:23.048Z,58.53
2023-03-17T02:36:10.563Z,80.63
2023-03-17T02:38:55.370Z,86.32
2023-03-17T02:41:38.812Z,85.13
2023-03-17T02:44:27.355Z,90.13
2023-03-17T02:47:08.674Z,96.25
2023-03-17T02:49:52.540Z,101.00
2023-03-17T02:52:47.129Z,92.45
2023-03-17T02:55:26.444Z,81.57
2023-03-17T02:58:15.639Z,82.70
2023-03-17T03:01:03.306Z,75.13
2023-03-17T03:03:47.424Z,72.90
2023-03-17T03:06:34.400Z,66.72
2023-03-17T03:09:20.576Z,71.15
2023-03-17T03:12:10.117Z,66.63
2023-03-17T03:15:00.898Z,68.10
2023-03-17T03:17:44.775Z,69.22
2023-03-17T03:20:22.136Z,80.95
2023-03-17T03:23:04.109Z,68.95
2023-03-17T03:25:39.486Z,83.20
2023-03-17T03:28:17.781Z,86.35
2023-03-17T03:31:11.278Z,85.93
2023-03-17T03:33:54.607Z,80.30
2023-03-17T03:36:37.223Z,87.00
2023-03-17T03:39:21.455Z,78.78
2023-03-17T03:42:08.116Z,74.53
2023-03-17T03:44:50.769Z,73.00
2023-03-17T03:47:42.669Z,70.60
2023-03-17T03:50:23.737Z,79.03
2023-03-17T03:53:06.146Z,79.78
2023-03-17T03:55:44.450Z,84.05
2023-03-17T03:58:23.125Z,79.72
2023-03-17T04:01:13.358Z,97.50
2023-03-17T04:04:00.612Z,66.25
2023-03-17T04:06:40.797Z,97.63
2023-03-17T04:09:22.458Z,107.07
2023-03-17T04:12:10.538Z,112.20
2023-03-17T04:14:49.299Z,97.97
2023-03-17T04:17:38.918Z,112.03
2023-03-17T04:20:33.074Z,127.47
2023-03-17T04:23:15.083Z,130.55
2023-03-17T04:26:02.567Z,119.65
2023-03-17T04:28:43.671Z,118.05
2023-03-17T04:31:33.822Z,113.80
2023-03-17T04:34:19.203Z,123.55
2023-03-17T04:37:04.086Z,141.27
2023-03-17T04:39:56.008Z,126.63
2023-03-17T04:42:37.905Z,129.10
2023-03-17T04:45:25.764Z,146.02
2023-03-17T04:48:17.385Z,140.57
2023-03-17T04:50:58.787Z,146.32
2023-03-17T04:53:49.217Z,125.70
2023-03-17T04:56:38.556Z,121.68
2023-03-17T04:59:19.175Z,116.55
2023-03-17T05:02:02.450Z,121.45
2023-03-17T05:04:40.736Z,113.55
2023-03-17T05:07:24.626Z,112.72
2023-03-17T05:10:07.072Z,123.03
2023-03-17T05:12:47.946Z,119.50
2023-03-17T05:15:31.349Z,109.75
2023-03-17T05:18:11.402Z,119.47
2023-03-17T05:21:00.719Z,128.93
2023-03-17T05:23:55.033Z,146.00
2023-03-17T05:26:41.358Z,153.93
2023-03-17T05:29:24.574Z,141.00
2023-03-17T05:32:02.625Z,151.68
2023-03-17T05:34:40.641Z,156.50
2023-03-17T05:37:27.581Z,178.65
2023-03-17T05:40:14.612Z,165.95
2023-03-17T05:43:17.565Z,153.50
2023-03-17T05:45:50.075Z,170.00
2023-03-17T05:48:36.487Z,216.45
2023-03-17T05:51:32.668Z,222.82
2023-03-17T05:54:15.888Z,233.27
2023-03-17T05:56:59.785Z,287.20
2023-03-17T05:59:46.035Z,317.70
2023-03-17T06:02:29.047Z,320.30
2023-03-17T06:05:18.226Z,272.33
2023-03-17T06:08:04.806Z,286.25
2023-03-17T06:10:37.897Z,185.73
2023-03-17T06:13:27.365Z,140.20
2023-03-17T06:16:18.590Z,65.60
2023-03-17T06:19:02.424Z,61.97
2023-03-17T06:21:43.218Z,60.70
2023-03-17T06:24:27.596Z,74.45
2023-03-17T06:27:16.540Z,61.15
2023-03-17T06:29:52.122Z,66.18
2023-03-17T06:32:40.172Z,65.00
2023-03-17T06:35:19.405Z,75.20
2023-03-17T06:37:57.411Z,67.35
2023-03-17T06:40:39.160Z,60.42
2023-03-17T06:43:21.095Z,61.65
2023-03-17T06:46:07.184Z,53.47
2023-03-17T06:48:47.969Z,61.65
2023-03-17T06:51:25.624Z,52.95
2023-03-17T06:54:10.372Z,49.97
2023-03-17T06:56:54.006Z,46.05
2023-03-17T06:59:35.512Z,42.38
2023-03-17T07:02:27.751Z,45.70
2023-03-17T07:05:06.844Z,39.50
2023-03-17T07:07:44.780Z,34.85
2023-03-17T07:10:25.533Z,34.03
2023-03-17T07:13:16.451Z,31.67
2023-03-17T07:16:00.796Z,33.55
2023-03-17T07:18:36.357Z,27.08
2023-03-17T07:21:14.770Z,30.88
2023-03-17T07:24:04.508Z,30.20
2023-03-17T07:26:46.293Z,22.60
2023-03-17T07:29:21.013Z,27.35
2023-03-17T07:32:07.137Z,18.38
2023-03-17T07:34:46.511Z,11.63
2023-03-17T07:37:35.444Z,19.55
2023-03-17T07:40:13.554Z,13.00
2023-03-17T07:42:55.485Z,24.98
2023-03-17T07:45:36.256Z,17.48
2023-03-17T07:48:14.802Z,11.88
2023-03-17T07:51:00.785Z,11.93
2023-03-17T07:53:39.012Z,13.90
2023-03-17T07:56:29.035Z,12.63
2023-03-17T07:59:13.240Z,14.32
2023-03-17T08:01:52.166Z,14.98
2023-03-17T08:04:27.831Z,13.82
2023-03-17T08:07:10.889Z,17.65
2023-03-17T08:09:52.865Z,13.50
2023-03-17T08:12:30.038Z,18.30
2023-03-17T08:15:20.980Z,10.57
2023-03-17T08:18:01.829Z,12.13
2023-03-17T08:20:45.519Z,10.52
2023-03-17T08:23:32.613Z,9.13
2023-03-17T08:26:14.274Z,7.07
2023-03-17T08:29:07.303Z,9.52
2023-03-17T08:31:53.637Z,7.47
2023-03-17T08:34:36.325Z,10.38
2023-03-17T08:37:12.688Z,11.73
2023-03-17T08:39:59.177Z,10.13
2023-03-17T08:42:44.785Z,9.70
2023-03-17T08:45:28.382Z,8.30
2023-03-17T08:48:15.012Z,11.57
2023-03-17T08:51:03.476Z,8.93
2023-03-17T08:53:45.059Z,9.77
2023-03-17T08:56:28.937Z,10.23
2023-03-17T08:59:19.601Z,17.10
2023-03-17T09:02:00.912Z,9.75
2023-03-17T09:04:38.982Z,8.52
2023-03-17T09:07:20.649Z,8.45
2023-03-17T09:10:06.041Z,9.07
2023-03-17T09:12:45.231Z,8.15
2023-03-17T09:15:27.997Z,10.23
2023-03-17T09:18:14.415Z,19.85
2023-03-17T09:20:55.173Z,12.27
2023-03-17T09:23:44.362Z,5.82
2023-03-17T09:26:22.442Z,6.97
2023-03-17T09:29:05.956Z,10.43
2023-03-17T09:31:48.608Z,7.07
2023-03-17T09:34:26.557Z,8.00
2023-03-17T09:37:14.928Z,5.22
2023-03-17T09:39:56.166Z,9.82
2023-03-17T09:42:53.891Z,9.30
2023-03-17T09:45:51.420Z,7.43
2023-03-17T09:48:45.845Z,8.38
2023-03-17T09:51:40.058Z,6.95
2023-03-17T09:54:38.176Z,8.77
2023-03-17T09:57:24.934Z,11.75
2023-03-17T10:00:26.951Z,7.03
2023-03-17T10:03:12.615Z,12.80
2023-03-17T10:05:55.854Z,12.00
2023-03-17T10:08:49.155Z,9.98
2023-03-17T10:11:47.657Z,9.45
2023-03-17T10:14:55.259Z,8.10
2023-03-17T10:17:51.269Z,9.23
2023-03-17T10:20:36.691Z,7.90
2023-03-17T10:23:27.312Z,10.75
2023-03-17T10:26:30.634Z,8.00
2023-03-17T10:29:13.421Z,7.47
2023-03-17T10:31:51.741Z,12.18
2023-03-17T10:34:33.118Z,7.57
2023-03-17T10:37:36.762Z,7.65
2023-03-17T10:40:24.265Z,11.43
2023-03-17T10:43:19.059Z,10.73
2023-03-17T10:46:12.078Z,8.10
2023-03-17T10:48:54.973Z,8.10
2023-03-17T10:51:40.768Z,8.85
2023-03-17T10:54:25.385Z,12.30
2023-03-17T10:57:13.649Z,9.30
2023-03-17T11:00:11.992Z,8.20
2023-03-17T11:02:59.055Z,9.65
2023-03-17T11:05:39.747Z,7.72
2023-03-17T11:08:42.084Z,8.80
2023-03-17T11:11:39.149Z,5.22
2023-03-17T11:14:31.207Z,6.13
2023-03-17T11:17:25.459Z,7.97
2023-03-17T11:23:22.332Z,4.18
2023-03-17T11:26:26.259Z,15.15
2023-03-17T11:29:35.349Z,11.65
2023-03-17T11:32:44.265Z,6.88
2023-03-17T11:35:41.656Z,8.68
2023-03-17T11:38:51.694Z,8.05
2023-03-17T11:41:38.844Z,13.68
2023-03-17T11:44:38.180Z,9.77
2023-03-17T11:47:43.093Z,8.60
2023-03-17T11:50:39.422Z,9.95
2023-03-17T11:53:53.994Z,7.22
2023-03-17T11:56:49.314Z,16.60
2023-03-17T11:59:52.158Z,8.25
2023-03-17T12:02:44.464Z,11.32
2023-03-17T12:05:29.673Z,4.85
2023-03-17T12:08:29.929Z,6.65
2023-03-17T12:11:08.851Z,9.07
2023-03-17T12:14:19.818Z,8.18
2023-03-17T12:17:19.222Z,12.25
2023-03-17T12:20:12.920Z,7.72
2023-03-17T12:23:08.929Z,9.45
2023-03-17T12:26:01.051Z,9.45
2023-03-17T12:28:44.238Z,7.57
2023-03-17T12:31:36.988Z,6.57
2023-03-17T12:34:23.487Z,7.90
2023-03-17T12:37:16.050Z,9.40
2023-03-17T12:40:20.031Z,6.60
2023-03-17T12:43:08.718Z,12.35
2023-03-17T12:46:17.479Z,13.02
2023-03-17T12:49:17.375Z,7.18
2023-03-17T12:52:10.450Z,6.90
2023-03-17T12:54:57.830Z,12.27
2023-03-17T12:58:10.995Z,6.82
2023-03-17T13:01:13.114Z,7.13
2023-03-17T13:04:10.026Z,9.68
2023-03-17T13:07:16.118Z,8.00
2023-03-17T13:10:40.879Z,13.25
2023-03-17T13:13:39.094Z,8.18
2023-03-17T13:16:47.025Z,6.35
2023-03-17T13:19:36.357Z,7.80
2023-03-17T13:22:44.961Z,7.53
2023-03-17T13:25:41.366Z,17.55
2023-03-17T13:28:25.694Z,9.27
2023-03-17T13:31:32.087Z,7.00
2023-03-17T13:34:25.483Z,9.98
2023-03-17T13:37:29.483Z,10.63
2023-03-17T13:40:21.522Z,9.93
2023-03-17T13:43:31.032Z,7.95
2023-03-17T13:46:28.752Z,8.43
2023-03-17T13:49:29.711Z,11.13
2023-03-17T13:52:41.548Z,8.32
2023-03-17T13:55:35.110Z,9.57
2023-03-17T13:58:52.084Z,6.90
2023-03-17T14:01:34.517Z,11.45
2023-03-17T14:04:24.798Z,8.68
2023-03-17T14:07:13.107Z,8.57
2023-03-17T14:09:54.932Z,8.43
2023-03-17T14:12:57.681Z,7.75
2023-03-17T14:16:01.314Z,9.30
2023-03-17T14:18:52.709Z,8.18
2023-03-17T14:21:42.186Z,6.22
2023-03-17T14:24:33.826Z,7.05
2023-03-17T14:27:18.873Z,8.70
2023-03-17T14:30:02.524Z,6.18
2023-03-17T14:32:43.923Z,11.05
2023-03-17T14:35:23.318Z,10.25
2023-03-17T14:38:02.207Z,7.53
2023-03-17T14:40:45.458Z,10.80
2023-03-17T14:43:25.625Z,9.23
2023-03-17T14:46:18.616Z,13.75
2023-03-17T14:49:29.206Z,6.80
2023-03-17T14:52:32.700Z,10.68
2023-03-17T14:55:16.169Z,7.88
2023-03-17T14:58:14.560Z,9.93
2023-03-17T15:01:06.218Z,8.55
2023-03-17T15:03:59.633Z,9.23
2023-03-17T15:07:01.471Z,5.53
2023-03-17T15:09:48.352Z,5.82
2023-03-17T15:12:29.012Z,7.10
2023-03-17T15:15:38.475Z,6.72
2023-03-17T15:18:23.595Z,6.25
2023-03-17T15:21:01.205Z,5.90
2023-03-17T15:23:50.902Z,8.88
2023-03-17T15:26:41.736Z,9.07
2023-03-17T15:29:27.921Z,5.65
2023-03-17T15:32:19.913Z,8.15
2023-03-17T15:35:03.816Z,7.18
2023-03-17T15:38:00.987Z,9.18
2023-03-17T15:40:36.165Z,9.52
2023-03-17T15:43:22.796Z,6.30
2023-03-17T15:46:11.609Z,7.75
2023-03-17T15:48:52.084Z,5.30
2023-03-17T15:51:36.280Z,6.50
2023-03-17T15:54:20.404Z,8.57
2023-03-17T15:59:48.612Z,10.05
2023-03-17T16:02:42.746Z,8.75
2023-03-17T16:05:44.418Z,9.10
2023-03-17T16:08:25.966Z,9.48
2023-03-17T16:11:15.320Z,11.30
2023-03-17T16:13:59.691Z,9.50
2023-03-17T16:19:49.817Z,11.20
2023-03-17T16:22:49.712Z,8.95
2023-03-17T16:25:36.540Z,21.80
2023-03-17T16:28:25.358Z,12.70
2023-03-17T16:31:07.244Z,12.65
2023-03-17T16:33:53.988Z,13.02
2023-03-17T16:36:40.467Z,12.02
2023-03-17T16:39:26.741Z,11.93
2023-03-17T16:42:07.199Z,15.05
2023-03-17T16:44:56.551Z,14.52
2023-03-17T16:47:38.390Z,18.67
2023-03-17T16:50:30.819Z,15.88
2023-03-17T16:53:09.296Z,22.75
2023-03-17T16:55:57.568Z,25.10
2023-03-17T16:58:36.940Z,24.70
2023-03-17T17:01:49.351Z,31.25
2023-03-17T17:04:41.372Z,27.65
2023-03-17T17:07:19.653Z,26.60
2023-03-17T17:09:58.341Z,32.05
2023-03-17T17:12:48.195Z,31.88
2023-03-17T17:15:31.890Z,37.53
2023-03-17T17:18:31.330Z,27.77
2023-03-17T17:21:18.908Z,21.48
2023-03-17T17:24:04.323Z,22.90
2023-03-17T17:26:49.135Z,21.48
2023-03-17T17:29:26.223Z,24.67
2023-03-17T17:32:10.441Z,17.88
2023-03-17T17:34:51.734Z,32.78
2023-03-17T17:37:32.602Z,36.38
2023-03-17T17:40:13.886Z,40.72
2023-03-17T17:42:58.414Z,58.13
2023-03-17T17:45:54.225Z,60.30
2023-03-17T17:48:36.446Z,45.63
2023-03-17T17:51:19.562Z,57.55
2023-03-17T17:54:07.966Z,57.40
2023-03-17T17:56:50.019Z,47.03
2023-03-17T17:59:33.516Z,44.58
2023-03-17T18:02:19.996Z,43.15
2023-03-17T18:05:01.306Z,34.90
2023-03-17T18:07:49.551Z,39.35
2023-03-17T18:10:33.727Z,46.10
2023-03-17T18:13:15.327Z,40.75
2023-03-17T18:16:02.120Z,47.45
2023-03-17T18:18:43.332Z,51.33
2023-03-17T18:21:34.890Z,50.55
2023-03-17T18:24:09.246Z,47.28
2023-03-17T18:26:55.664Z,46.30
2023-03-17T18:29:40.448Z,40.15
2023-03-17T18:32:21.904Z,35.78
2023-03-17T18:35:07.112Z,32.40
2023-03-17T18:37:57.686Z,31.10
2023-03-17T18:40:41.198Z,39.72
2023-03-17T18:43:28.834Z,28.38
2023-03-17T18:46:13.159Z,31.65
2023-03-17T18:49:05.943Z,34.35
2023-03-17T18:51:48.286Z,36.03
2023-03-17T18:54:33.582Z,35.00
2023-03-17T18:57:28.205Z,30.73
2023-03-17T19:00:10.807Z,38.72
2023-03-17T19:02:54.196Z,29.30
2023-03-17T19:05:42.591Z,35.88
2023-03-17T19:08:31.978Z,37.53
2023-03-17T19:11:09.422Z,41.15
2023-03-17T19:13:58.384Z,41.13
2023-03-17T19:16:37.045Z,40.30
2023-03-17T19:19:31.367Z,35.28
2023-03-17T19:22:16.570Z,35.17
2023-03-17T19:25:05.015Z,35.00
2023-03-17T19:27:42.861Z,41.08
2023-03-17T19:30:24.533Z,34.70
2023-03-17T19:33:11.768Z,35.38
2023-03-17T19:36:00.175Z,42.03
2023-03-17T19:38:42.797Z,37.00
2023-03-17T19:41:26.685Z,35.28
2023-03-17T19:47:05.098Z,39.78
2023-03-17T19:49:45.649Z,39.20
2023-03-17T19:52:26.559Z,45.28
2023-03-17T19:57:52.406Z,50.13
2023-03-17T20:00:33.740Z,56.40
2023-03-17T20:03:16.773Z,59.28
2023-03-17T20:06:00.258Z,55.27
2023-03-17T20:08:46.285Z,74.50
2023-03-17T20:11:27.558Z,58.80
2023-03-17T20:14:06.336Z,49.42
2023-03-17T20:16:54.755Z,48.30
2023-03-17T20:19:49.876Z,48.08
2023-03-17T20:22:33.675Z,40.35
2023-03-17T20:25:12.438Z,45.90
2023-03-17T20:27:53.571Z,41.47
2023-03-17T20:30:33.452Z,44.83
2023-03-17T20:33:12.337Z,48.10
2023-03-17T20:36:02.212Z,49.53
2023-03-17T20:38:43.190Z,44.45
2023-03-17T20:41:21.088Z,47.22
2023-03-17T20:44:04.688Z,52.13
2023-03-17T20:46:54.465Z,45.13
2023-03-17T20:49:48.877Z,46.80
2023-03-17T20:52:36.486Z,44.83
2023-03-17T20:55:17.735Z,52.45
2023-03-17T20:57:59.294Z,60.67
2023-03-17T21:00:43.599Z,68.95
2023-03-17T21:03:30.174Z,81.32
2023-03-17T21:06:13.469Z,75.05
2023-03-17T21:08:58.799Z,58.30
2023-03-17T21:11:42.193Z,42.38
2023-03-17T21:14:23.907Z,63.63
2023-03-17T21:17:01.359Z,55.35
2023-03-17T21:19:56.500Z,62.43
2023-03-17T21:22:39.688Z,55.78
2023-03-17T21:25:17.998Z,56.40
2023-03-17T21:28:16.858Z,54.08
2023-03-17T21:31:00.848Z,47.05
2023-03-17T21:33:36.217Z,54.75
2023-03-17T21:36:20.507Z,53.60
2023-03-17T21:39:04.632Z,53.50
2023-03-17T21:42:04.580Z,54.63
2023-03-17T21:44:42.877Z,50.60
2023-03-17T21:47:32.391Z,47.88
2023-03-17T21:50:17.857Z,38.70
2023-03-17T21:52:58.638Z,44.70
2023-03-17T21:55:48.025Z,31.77
2023-03-17T21:58:24.016Z,28.30
2023-03-17T22:03:46.549Z,34.65
2023-03-17T22:06:34.235Z,30.63
2023-03-17T22:09:13.080Z,23.58
2023-03-17T22:12:03.778Z,26.55
2023-03-17T22:14:39.104Z,31.27
2023-03-17T22:17:17.283Z,31.45
2023-03-17T22:19:55.990Z,35.78
2023-03-17T22:22:34.569Z,36.72
2023-03-17T22:25:23.469Z,37.00
2023-03-17T22:28:04.657Z,34.78
2023-03-17T22:30:48.545Z,41.65
2023-03-17T22:33:23.930Z,36.55
2023-03-17T22:36:10.498Z,29.10
2023-03-17T22:38:56.726Z,41.50
2023-03-17T22:41:40.551Z,31.17
2023-03-17T22:47:01.348Z,32.20
2023-03-17T22:49:46.870Z,25.58
2023-03-17T22:52:38.015Z,20.80
2023-03-17T22:58:07.619Z,20.88
2023-03-17T23:00:48.372Z,22.67
2023-03-17T23:03:32.140Z,25.50
2023-03-17T23:06:14.784Z,31.63
2023-03-17T23:08:51.258Z,29.10
2023-03-17T23:11:27.114Z,28.08
2023-03-17T23:14:05.440Z,23.63
2023-03-17T23:16:45.368Z,27.63
2023-03-17T23:19:30.678Z,32.58
2023-03-17T23:22:14.359Z,28.15
2023-03-17T23:24:58.313Z,33.08
2023-03-17T23:27:41.537Z,35.83
2023-03-17T23:30:21.978Z,33.50
2023-03-17T23:33:02.154Z,34.58
2023-03-17T23:35:46.313Z,36.00
2023-03-17T23:38:30.718Z,49.92
2023-03-17T23:41:11.596Z,34.33
2023-03-17T23:43:52.944Z,39.85
2023-03-17T23:46:39.208Z,40.33
2023-03-17T23:49:26.011Z,38.88
2023-03-17T23:52:01.955Z,38.50
2023-03-17T23:54:55.495Z,40.72
2023-03-17T23:57:44.331Z,38.28
